createdAt,value
2019-05-19T00:00:06.385Z,13.51
2019-05-19T00:02:35.768Z,13.53
2019-05-19T00:05:05.409Z,13.56
2019-05-19T00:07:34.457Z,13.62
2019-05-19T00:10:03.908Z,13.52
2019-05-19T00:12:32.976Z,13.45
2019-05-19T00:15:02.393Z,13.45
2019-05-19T00:17:31.454Z,13.44
2019-05-19T00:20:00.904Z,13.37
2019-05-19T00:22:29.955Z,13.38
2019-05-19T00:25:02.491Z,13.37
2019-05-19T00:27:31.538Z,13.38
2019-05-19T00:30:00.553Z,13.34
2019-05-19T00:32:29.630Z,13.35
2019-05-19T00:34:58.672Z,13.40
2019-05-19T00:37:27.710Z,13.39
2019-05-19T00:39:56.762Z,13.34
2019-05-19T00:42:26.189Z,13.35
2019-05-19T00:44:55.300Z,13.43
2019-05-19T00:47:24.347Z,13.40
2019-05-19T00:49:53.394Z,13.42
2019-05-19T00:52:22.460Z,13.45
2019-05-19T00:54:51.582Z,13.41
2019-05-19T00:57:20.667Z,13.44
2019-05-19T00:59:50.697Z,13.45
2019-05-19T01:02:19.789Z,13.52
2019-05-19T01:04:49.876Z,13.64
2019-05-19T01:07:18.950Z,13.64
2019-05-19T01:09:48.379Z,13.65
2019-05-19T01:12:17.458Z,13.69
2019-05-19T01:14:46.503Z,13.70
2019-05-19T01:17:15.503Z,13.65
2019-05-19T01:19:55.689Z,13.67
2019-05-19T01:22:15.651Z,13.73
2019-05-19T01:24:44.695Z,13.73
2019-05-19T01:27:13.758Z,13.67
2019-05-19T01:29:42.783Z,13.78
2019-05-19T01:32:12.767Z,13.75
2019-05-19T01:34:41.876Z,13.78
2019-05-19T01:37:11.275Z,13.84
2019-05-19T01:39:40.594Z,14.09
2019-05-19T01:42:09.647Z,14.09
2019-05-19T01:44:38.691Z,14.05
2019-05-19T01:47:08.118Z,13.98
2019-05-19T01:49:37.883Z,13.77
2019-05-19T01:52:06.990Z,13.49
2019-05-19T01:54:36.300Z,13.46
2019-05-19T01:57:05.995Z,13.51
2019-05-19T01:59:35.037Z,13.56
2019-05-19T02:02:04.165Z,13.52
2019-05-19T02:04:33.244Z,13.50
2019-05-19T02:07:02.623Z,13.49
2019-05-19T02:09:32.004Z,13.52
2019-05-19T02:12:01.135Z,13.41
2019-05-19T02:14:30.177Z,13.35
2019-05-19T02:16:59.593Z,13.41
2019-05-19T02:19:28.650Z,13.37
2019-05-19T02:21:57.720Z,13.28
2019-05-19T02:24:27.113Z,13.35
2019-05-19T02:26:56.121Z,13.37
2019-05-19T02:29:25.482Z,13.42
2019-05-19T02:31:55.269Z,13.45
2019-05-19T02:34:24.675Z,13.45
2019-05-19T02:36:54.119Z,13.53
2019-05-19T02:39:23.573Z,13.46
2019-05-19T02:41:54.443Z,13.41
2019-05-19T02:44:23.583Z,13.39
2019-05-19T02:46:52.923Z,13.36
2019-05-19T02:49:22.387Z,13.32
2019-05-19T02:51:52.656Z,13.27
2019-05-19T02:54:21.971Z,13.32
2019-05-19T02:56:52.528Z,13.42
2019-05-19T02:59:23.250Z,13.43
2019-05-19T03:02:03.513Z,13.39
2019-05-19T03:04:33.581Z,13.41
2019-05-19T03:07:02.872Z,13.44
2019-05-19T03:09:32.257Z,13.48
2019-05-19T03:12:01.303Z,13.47
2019-05-19T03:14:30.319Z,13.45
2019-05-19T03:16:59.695Z,13.47
2019-05-19T03:19:28.719Z,13.48
2019-05-19T03:21:57.761Z,13.47
2019-05-19T03:24:26.775Z,13.51
2019-05-19T03:26:56.224Z,13.54
2019-05-19T03:29:30.493Z,13.56
2019-05-19T03:32:15.349Z,13.55
2019-05-19T03:34:44.732Z,13.51
2019-05-19T03:37:13.802Z,13.45
2019-05-19T03:39:42.894Z,13.34
2019-05-19T03:42:12.003Z,13.37
2019-05-19T03:44:41.042Z,13.42
2019-05-19T03:47:10.475Z,13.39
2019-05-19T03:49:40.144Z,13.41
2019-05-19T03:52:09.215Z,13.51
2019-05-19T03:54:38.230Z,13.54
2019-05-19T03:57:08.036Z,13.46
2019-05-19T03:59:37.153Z,13.42
2019-05-19T04:02:06.520Z,13.43
2019-05-19T04:04:35.933Z,13.32
2019-05-19T04:07:05.310Z,13.48
2019-05-19T04:09:34.372Z,13.35
2019-05-19T04:12:03.755Z,13.30
2019-05-19T04:14:32.844Z,13.30
2019-05-19T04:17:02.372Z,13.29
2019-05-19T04:19:32.951Z,13.15
2019-05-19T04:22:02.026Z,13.17
2019-05-19T04:24:31.099Z,13.21
2019-05-19T04:27:00.166Z,13.23
2019-05-19T04:29:29.615Z,13.18
2019-05-19T04:31:59.048Z,13.26
2019-05-19T04:34:28.466Z,13.21
2019-05-19T04:36:57.927Z,13.23
2019-05-19T04:39:27.005Z,13.25
2019-05-19T04:41:56.476Z,13.33
2019-05-19T04:44:26.287Z,13.29
2019-05-19T04:46:55.694Z,13.40
2019-05-19T04:49:25.066Z,13.39
2019-05-19T04:52:05.892Z,13.49
2019-05-19T04:54:25.255Z,13.43
2019-05-19T04:56:54.575Z,13.44
2019-05-19T04:59:23.577Z,13.45
2019-05-19T05:01:52.632Z,13.47
2019-05-19T05:04:21.664Z,13.46
2019-05-19T05:06:50.784Z,13.55
2019-05-19T05:09:19.848Z,13.66
2019-05-19T05:11:48.891Z,13.66
2019-05-19T05:14:17.956Z,13.71
2019-05-19T05:16:46.994Z,13.64
2019-05-19T05:19:16.045Z,13.72
2019-05-19T05:21:45.111Z,13.70
2019-05-19T05:24:14.405Z,13.73
2019-05-19T05:26:43.450Z,13.85
2019-05-19T05:29:12.565Z,13.98
2019-05-19T05:31:41.638Z,14.04
2019-05-19T05:34:10.758Z,14.02
2019-05-19T05:36:39.842Z,13.92
2019-05-19T05:39:10.021Z,13.97
2019-05-19T05:41:39.139Z,13.92
2019-05-19T05:44:08.529Z,13.79
2019-05-19T05:46:37.572Z,13.76
2019-05-19T05:49:06.737Z,13.73
2019-05-19T05:51:35.792Z,13.77
2019-05-19T05:54:05.143Z,13.82
2019-05-19T05:56:34.206Z,13.81
2019-05-19T05:59:03.240Z,13.80
2019-05-19T06:01:32.355Z,13.87
2019-05-19T06:04:01.508Z,13.88
2019-05-19T06:06:30.584Z,13.88
2019-05-19T06:08:59.979Z,13.84
2019-05-19T06:11:29.080Z,13.90
2019-05-19T06:13:58.126Z,13.93
2019-05-19T06:16:27.166Z,14.04
2019-05-19T06:18:56.943Z,14.06
2019-05-19T06:21:26.095Z,14.03
2019-05-19T06:23:55.157Z,14.07
2019-05-19T06:26:24.551Z,14.09
2019-05-19T06:28:53.912Z,14.17
2019-05-19T06:31:22.971Z,14.20
2019-05-19T06:33:52.487Z,14.25
2019-05-19T06:36:21.541Z,14.32
2019-05-19T06:38:50.721Z,14.30
2019-05-19T06:41:21.023Z,14.23
2019-05-19T06:43:50.414Z,14.38
2019-05-19T06:46:19.768Z,14.49
2019-05-19T06:48:48.869Z,14.51
2019-05-19T06:51:17.975Z,14.51
2019-05-19T06:53:47.114Z,14.51
2019-05-19T06:56:16.469Z,14.49
2019-05-19T06:58:45.566Z,14.55
2019-05-19T07:01:14.613Z,14.47
2019-05-19T07:03:44.067Z,14.52
2019-05-19T07:06:13.171Z,14.54
2019-05-19T07:08:42.541Z,14.53
2019-05-19T07:11:11.659Z,14.46
2019-05-19T07:13:40.695Z,14.43
2019-05-19T07:16:09.727Z,14.50
2019-05-19T07:18:38.811Z,14.58
2019-05-19T07:21:09.013Z,14.55
2019-05-19T07:23:38.332Z,14.56
2019-05-19T07:26:07.979Z,14.42
2019-05-19T07:28:37.013Z,14.42
2019-05-19T07:31:06.040Z,14.40
2019-05-19T07:33:35.539Z,14.46
2019-05-19T07:36:05.033Z,14.45
2019-05-19T07:38:34.097Z,14.34
2019-05-19T07:41:03.180Z,14.38
2019-05-19T07:43:32.211Z,14.34
2019-05-19T07:46:01.311Z,14.30
2019-05-19T07:48:30.745Z,14.33
2019-05-19T07:50:59.807Z,14.22
2019-05-19T07:53:42.188Z,14.23
2019-05-19T07:55:59.619Z,14.17
2019-05-19T07:58:29.551Z,14.19
2019-05-19T08:00:58.758Z,14.18
2019-05-19T08:03:27.839Z,14.16
2019-05-19T08:05:57.208Z,14.12
2019-05-19T08:08:26.307Z,14.04
2019-05-19T08:10:55.756Z,14.12
2019-05-19T08:13:24.818Z,14.17
2019-05-19T08:15:53.829Z,14.18
2019-05-19T08:18:22.857Z,14.27
2019-05-19T08:20:52.648Z,14.31
2019-05-19T08:23:22.452Z,14.36
2019-05-19T08:25:51.515Z,14.45
2019-05-19T08:28:20.556Z,14.44
2019-05-19T08:30:49.652Z,14.44
2019-05-19T08:33:19.479Z,14.45
2019-05-19T08:35:48.647Z,14.45
2019-05-19T08:38:17.662Z,14.49
2019-05-19T08:40:47.074Z,14.48
2019-05-19T08:43:16.456Z,14.47
2019-05-19T08:45:45.915Z,14.43
2019-05-19T08:48:14.938Z,14.42
2019-05-19T08:50:43.946Z,14.45
2019-05-19T08:53:13.309Z,14.48
2019-05-19T08:55:42.389Z,14.41
2019-05-19T08:58:11.489Z,14.34
2019-05-19T09:00:40.533Z,14.35
2019-05-19T09:03:09.981Z,14.44
2019-05-19T09:05:39.033Z,14.36
2019-05-19T09:08:08.442Z,14.43
2019-05-19T09:10:37.853Z,14.46
2019-05-19T09:13:07.210Z,14.56
2019-05-19T09:15:36.249Z,14.44
2019-05-19T09:18:05.302Z,14.64
2019-05-19T09:20:34.712Z,14.62
2019-05-19T09:23:04.251Z,14.67
2019-05-19T09:25:33.847Z,14.72
2019-05-19T09:28:03.244Z,14.69
2019-05-19T09:30:32.323Z,14.41
2019-05-19T09:33:01.474Z,14.24
2019-05-19T09:35:30.463Z,14.24
2019-05-19T09:37:59.515Z,14.33
2019-05-19T09:40:28.625Z,14.41
2019-05-19T09:42:58.360Z,14.35
2019-05-19T09:45:28.450Z,14.54
2019-05-19T09:47:57.544Z,14.46
2019-05-19T09:50:27.100Z,14.51
2019-05-19T09:52:56.176Z,14.75
2019-05-19T09:55:25.917Z,14.98
2019-05-19T09:57:55.120Z,15.19
2019-05-19T10:00:24.256Z,15.36
2019-05-19T10:02:53.426Z,15.31
2019-05-19T10:05:22.842Z,15.42
2019-05-19T10:07:51.923Z,15.17
2019-05-19T10:10:47.852Z,15.19
2019-05-19T10:13:16.883Z,15.36
2019-05-19T10:15:46.569Z,15.15
2019-05-19T10:18:15.611Z,15.18
2019-05-19T10:20:44.783Z,15.47
2019-05-19T10:23:13.846Z,15.81
2019-05-19T10:25:43.123Z,16.00
2019-05-19T10:28:12.214Z,16.31
2019-05-19T10:30:41.285Z,16.61
2019-05-19T10:33:10.370Z,16.41
2019-05-19T10:35:43.294Z,16.07
2019-05-19T10:38:12.511Z,16.11
2019-05-19T10:40:41.531Z,16.00
2019-05-19T10:43:11.245Z,16.07
2019-05-19T10:45:40.294Z,16.09
2019-05-19T10:48:09.384Z,15.87
2019-05-19T10:50:38.859Z,16.07
2019-05-19T10:53:07.921Z,16.32
2019-05-19T10:55:37.206Z,16.10
2019-05-19T10:58:06.642Z,16.10
2019-05-19T11:00:35.721Z,16.31
2019-05-19T11:03:05.575Z,16.31
2019-05-19T11:05:34.611Z,16.26
2019-05-19T11:08:03.702Z,16.25
2019-05-19T11:10:32.829Z,15.97
2019-05-19T11:13:02.124Z,16.20
2019-05-19T11:15:31.493Z,16.06
2019-05-19T11:18:00.587Z,16.21
2019-05-19T11:20:30.004Z,16.31
2019-05-19T11:22:59.865Z,16.45
2019-05-19T11:25:34.004Z,16.83
2019-05-19T11:28:00.267Z,16.81
2019-05-19T11:30:30.137Z,16.77
2019-05-19T11:32:59.197Z,16.87
2019-05-19T11:35:28.281Z,16.89
2019-05-19T11:37:57.700Z,16.85
2019-05-19T11:40:26.802Z,16.76
2019-05-19T11:42:56.104Z,16.49
2019-05-19T11:45:25.887Z,16.22
2019-05-19T11:47:55.330Z,16.03
2019-05-19T11:50:24.392Z,16.19
2019-05-19T11:52:53.449Z,16.13
2019-05-19T11:55:22.805Z,16.07
2019-05-19T11:57:51.918Z,16.05
2019-05-19T12:00:21.017Z,16.07
2019-05-19T12:02:50.079Z,16.00
2019-05-19T12:05:19.513Z,16.05
2019-05-19T12:07:48.880Z,16.39
2019-05-19T12:10:18.136Z,16.41
2019-05-19T12:12:47.729Z,16.51
2019-05-19T12:15:16.980Z,16.60
2019-05-19T12:17:46.129Z,16.67
2019-05-19T12:20:15.664Z,16.73
2019-05-19T12:22:44.757Z,16.23
2019-05-19T12:25:14.451Z,16.22
2019-05-19T12:27:46.693Z,15.83
2019-05-19T12:30:20.083Z,15.95
2019-05-19T12:32:49.388Z,15.69
2019-05-19T12:35:18.796Z,15.64
2019-05-19T12:37:48.173Z,15.46
2019-05-19T12:40:17.642Z,15.39
2019-05-19T12:42:46.667Z,15.31
2019-05-19T12:45:15.746Z,15.34
2019-05-19T12:47:44.849Z,15.31
2019-05-19T12:50:14.495Z,15.42
2019-05-19T12:52:43.583Z,15.36
2019-05-19T12:55:12.754Z,15.55
2019-05-19T12:57:41.867Z,15.64
2019-05-19T13:00:11.018Z,15.70
2019-05-19T13:02:40.104Z,15.90
2019-05-19T13:05:09.721Z,16.06
2019-05-19T13:07:38.897Z,16.04
2019-05-19T13:10:09.011Z,16.34
2019-05-19T13:12:38.064Z,16.43
2019-05-19T13:15:07.626Z,16.56
2019-05-19T13:17:37.004Z,16.73
2019-05-19T13:20:06.353Z,17.01
2019-05-19T13:22:35.454Z,17.01
2019-05-19T13:25:05.169Z,17.18
2019-05-19T13:27:34.743Z,17.22
2019-05-19T13:30:04.334Z,17.14
2019-05-19T13:32:33.531Z,17.09
2019-05-19T13:35:02.866Z,17.01
2019-05-19T13:37:32.309Z,16.87
2019-05-19T13:40:02.073Z,16.82
2019-05-19T13:42:31.413Z,16.68
2019-05-19T13:45:00.514Z,16.70
2019-05-19T13:47:29.624Z,16.68
2019-05-19T13:49:58.707Z,16.74
2019-05-19T13:52:27.855Z,16.68
2019-05-19T13:54:56.951Z,16.77
2019-05-19T13:57:26.535Z,16.77
2019-05-19T13:59:55.589Z,16.71
2019-05-19T14:02:24.947Z,16.40
2019-05-19T14:04:54.069Z,16.63
2019-05-19T14:07:23.422Z,16.77
2019-05-19T14:09:53.195Z,16.84
2019-05-19T14:12:22.312Z,17.00
2019-05-19T14:14:51.562Z,17.00
2019-05-19T14:17:21.238Z,17.01
2019-05-19T14:19:50.268Z,17.07
2019-05-19T14:22:19.723Z,16.85
2019-05-19T14:24:48.793Z,16.99
2019-05-19T14:27:29.225Z,16.97
2019-05-19T14:29:48.902Z,16.75
2019-05-19T14:32:18.029Z,16.89
2019-05-19T14:34:47.390Z,16.86
2019-05-19T14:37:16.703Z,16.92
2019-05-19T14:39:45.711Z,16.86
2019-05-19T14:42:18.207Z,17.00
2019-05-19T14:44:47.303Z,17.02
2019-05-19T14:47:16.491Z,16.93
2019-05-19T14:49:45.802Z,17.07
2019-05-19T14:52:14.868Z,17.12
2019-05-19T14:54:43.991Z,17.09
2019-05-19T14:57:13.118Z,16.98
2019-05-19T14:59:42.225Z,16.97
2019-05-19T15:02:11.790Z,17.04
2019-05-19T15:04:40.841Z,17.02
2019-05-19T15:07:09.995Z,17.14
2019-05-19T15:09:39.086Z,17.09
2019-05-19T15:12:08.208Z,16.76
2019-05-19T15:14:37.689Z,16.80
2019-05-19T15:17:07.003Z,16.74
2019-05-19T15:19:36.947Z,16.72
2019-05-19T15:22:06.270Z,16.78
2019-05-19T15:24:35.511Z,16.81
2019-05-19T15:27:04.721Z,16.56
2019-05-19T15:29:33.854Z,16.48
2019-05-19T15:32:03.311Z,16.70
2019-05-19T15:34:32.425Z,16.76
2019-05-19T15:37:01.496Z,16.37
2019-05-19T15:39:30.660Z,16.37
2019-05-19T15:41:59.731Z,16.25
2019-05-19T15:44:29.043Z,16.31
2019-05-19T15:46:58.408Z,16.30
2019-05-19T15:49:27.473Z,16.53
2019-05-19T15:52:02.822Z,16.32
2019-05-19T15:54:27.517Z,16.36
2019-05-19T15:56:56.585Z,16.31
2019-05-19T15:59:25.788Z,16.50
2019-05-19T16:01:54.869Z,16.24
2019-05-19T16:04:23.898Z,16.32
2019-05-19T16:06:53.274Z,15.99
2019-05-19T16:09:25.326Z,16.15
2019-05-19T16:11:54.415Z,16.02
2019-05-19T16:14:23.426Z,15.80
2019-05-19T16:16:52.767Z,15.81
2019-05-19T16:19:22.091Z,15.67
2019-05-19T16:21:51.159Z,15.63
2019-05-19T16:24:20.245Z,15.87
2019-05-19T16:26:49.588Z,15.82
2019-05-19T16:29:18.871Z,15.85
2019-05-19T16:31:48.790Z,15.87
2019-05-19T16:34:17.880Z,15.85
2019-05-19T16:36:47.308Z,15.90
2019-05-19T16:39:19.564Z,15.89
2019-05-19T16:41:49.397Z,15.76
2019-05-19T16:44:18.879Z,15.68
2019-05-19T16:46:48.056Z,15.71
2019-05-19T16:49:17.116Z,15.64
2019-05-19T16:51:46.548Z,15.63
2019-05-19T16:54:21.061Z,15.47
2019-05-19T16:56:50.151Z,15.57
2019-05-19T16:59:19.468Z,15.54
2019-05-19T17:01:48.820Z,15.45
2019-05-19T17:04:17.884Z,15.61
2019-05-19T17:06:47.244Z,15.66
2019-05-19T17:09:16.681Z,15.58
2019-05-19T17:11:45.900Z,15.44
2019-05-19T17:14:15.425Z,15.46
2019-05-19T17:16:44.637Z,15.62
2019-05-19T17:19:13.688Z,15.49
2019-05-19T17:21:42.754Z,15.66
2019-05-19T17:24:11.863Z,15.55
2019-05-19T17:26:40.906Z,15.70
2019-05-19T17:29:10.222Z,15.62
2019-05-19T17:31:39.588Z,15.85
2019-05-19T17:34:08.730Z,15.96
2019-05-19T17:36:38.067Z,15.91
2019-05-19T17:39:07.721Z,15.87
2019-05-19T17:41:36.841Z,15.99
2019-05-19T17:44:07.638Z,16.06
2019-05-19T17:46:36.756Z,16.09
2019-05-19T17:49:05.826Z,15.96
2019-05-19T17:51:35.097Z,16.01
2019-05-19T17:54:04.216Z,15.85
2019-05-19T17:56:33.257Z,15.96
2019-05-19T17:59:15.801Z,15.74
2019-05-19T18:01:33.687Z,15.83
2019-05-19T18:04:02.790Z,15.86
2019-05-19T18:06:32.220Z,15.70
2019-05-19T18:09:01.282Z,15.65
2019-05-19T18:11:30.733Z,15.39
2019-05-19T18:14:00.595Z,15.51
2019-05-19T18:16:29.684Z,15.44
2019-05-19T18:19:00.305Z,15.27
2019-05-19T18:21:29.747Z,15.17
2019-05-19T18:23:59.107Z,15.16
2019-05-19T18:26:28.132Z,15.03
2019-05-19T18:28:57.436Z,15.00
2019-05-19T18:31:26.489Z,15.03
2019-05-19T18:33:55.614Z,14.94
2019-05-19T18:36:24.867Z,14.89
2019-05-19T18:38:53.967Z,14.89
2019-05-19T18:41:23.033Z,14.94
2019-05-19T18:43:52.120Z,14.85
2019-05-19T18:46:22.815Z,14.82
2019-05-19T18:48:52.211Z,14.65
2019-05-19T18:51:21.589Z,14.63
2019-05-19T18:53:50.642Z,14.45
2019-05-19T18:56:19.812Z,14.39
2019-05-19T18:58:49.280Z,14.39
2019-05-19T19:01:18.694Z,14.33
2019-05-19T19:03:47.894Z,14.28
2019-05-19T19:06:16.912Z,14.44
2019-05-19T19:08:46.040Z,14.50
2019-05-19T19:11:15.523Z,14.44
2019-05-19T19:13:44.640Z,14.41
2019-05-19T19:16:13.726Z,14.37
2019-05-19T19:18:43.118Z,14.20
2019-05-19T19:21:12.205Z,14.17
2019-05-19T19:23:41.261Z,14.11
2019-05-19T19:26:10.377Z,13.98
2019-05-19T19:28:42.923Z,13.90
2019-05-19T19:31:12.817Z,13.93
2019-05-19T19:33:42.178Z,13.88
2019-05-19T19:36:14.734Z,13.83
2019-05-19T19:38:44.417Z,13.95
2019-05-19T19:41:13.842Z,13.92
2019-05-19T19:43:42.938Z,13.91
2019-05-19T19:46:12.061Z,13.86
2019-05-19T19:48:41.567Z,13.86
2019-05-19T19:51:10.605Z,13.61
2019-05-19T19:53:39.649Z,13.71
2019-05-19T19:56:08.893Z,13.65
2019-05-19T19:58:37.979Z,13.65
2019-05-19T20:01:07.110Z,13.68
2019-05-19T20:03:39.746Z,13.59
2019-05-19T20:06:07.145Z,13.71
2019-05-19T20:08:36.528Z,13.64
2019-05-19T20:11:05.577Z,13.64
2019-05-19T20:13:34.742Z,13.61
2019-05-19T20:16:03.786Z,13.63
2019-05-19T20:18:33.584Z,13.54
2019-05-19T20:21:03.441Z,13.60
2019-05-19T20:23:32.596Z,13.55
2019-05-19T20:26:05.898Z,13.49
2019-05-19T20:28:35.043Z,13.52
2019-05-19T20:31:04.575Z,13.40
2019-05-19T20:33:33.817Z,13.47
2019-05-19T20:36:03.266Z,13.49
2019-05-19T20:38:32.357Z,13.43
2019-05-19T20:41:01.438Z,13.53
2019-05-19T20:43:30.485Z,13.47
2019-05-19T20:46:00.500Z,13.32
2019-05-19T20:48:32.619Z,13.40
2019-05-19T20:51:00.566Z,13.43
2019-05-19T20:53:29.621Z,13.36
2019-05-19T20:55:58.759Z,13.36
2019-05-19T20:58:28.210Z,13.25
2019-05-19T21:00:57.302Z,13.19
2019-05-19T21:03:26.701Z,13.24
2019-05-19T21:05:56.129Z,13.21
2019-05-19T21:08:25.239Z,13.10
2019-05-19T21:10:54.261Z,13.20
2019-05-19T21:13:23.304Z,13.21
2019-05-19T21:15:52.432Z,13.31
2019-05-19T21:18:21.642Z,13.23
2019-05-19T21:20:50.670Z,13.23
2019-05-19T21:23:19.724Z,13.17
2019-05-19T21:25:49.276Z,13.07
2019-05-19T21:28:18.885Z,13.07
2019-05-19T21:30:48.054Z,13.12
2019-05-19T21:33:17.376Z,13.14
2019-05-19T21:35:46.460Z,13.00
2019-05-19T21:38:15.542Z,13.04
2019-05-19T21:40:45.005Z,13.14
2019-05-19T21:43:14.137Z,13.07
2019-05-19T21:45:43.490Z,13.00
2019-05-19T21:48:12.788Z,13.01
2019-05-19T21:50:41.867Z,12.91
2019-05-19T21:53:10.942Z,12.92
2019-05-19T21:55:42.854Z,12.91
2019-05-19T21:58:11.896Z,12.91
2019-05-19T22:00:41.353Z,12.82
2019-05-19T22:03:10.405Z,12.68
2019-05-19T22:05:52.592Z,12.69
2019-05-19T22:08:13.989Z,12.74
2019-05-19T22:10:43.529Z,12.81
2019-05-19T22:13:13.398Z,12.85
2019-05-19T22:15:42.431Z,12.83
2019-05-19T22:18:11.482Z,12.77
2019-05-19T22:20:40.896Z,12.72
2019-05-19T22:23:10.237Z,12.74
2019-05-19T22:25:39.636Z,12.80
2019-05-19T22:28:08.663Z,12.60
2019-05-19T22:30:37.693Z,12.74
2019-05-19T22:33:07.111Z,12.60
2019-05-19T22:35:36.134Z,12.57
2019-05-19T22:38:05.323Z,12.54
2019-05-19T22:40:34.637Z,12.56
2019-05-19T22:43:04.069Z,12.56
2019-05-19T22:45:33.879Z,12.51
2019-05-19T22:48:02.917Z,12.48
2019-05-19T22:50:31.925Z,12.56
2019-05-19T22:53:00.922Z,12.55
2019-05-19T22:55:30.347Z,12.46
2019-05-19T22:57:59.400Z,12.35
2019-05-19T23:00:29.244Z,12.34
2019-05-19T23:02:58.271Z,12.48
2019-05-19T23:05:27.420Z,12.49
2019-05-19T23:07:56.465Z,12.53
2019-05-19T23:10:25.526Z,12.45
2019-05-19T23:12:54.543Z,12.45
2019-05-19T23:15:23.817Z,12.48
2019-05-19T23:17:52.800Z,12.43
2019-05-19T23:20:21.862Z,12.49
2019-05-19T23:22:51.189Z,12.50
2019-05-19T23:25:20.268Z,12.30
2019-05-19T23:27:49.583Z,12.22
2019-05-19T23:30:18.745Z,12.19
2019-05-19T23:32:47.718Z,12.18
2019-05-19T23:35:16.841Z,12.23
2019-05-19T23:37:45.910Z,12.19
2019-05-19T23:40:15.247Z,12.22
2019-05-19T23:42:44.289Z,12.26
2019-05-19T23:45:14.014Z,12.24
2019-05-19T23:47:43.370Z,12.25
2019-05-19T23:50:12.925Z,12.27
2019-05-19T23:52:41.973Z,12.30
2019-05-19T23:55:10.999Z,12.25
2019-05-19T23:57:40.050Z,12.31
